sensor_id;sensor_type;location;lat;lon;timestamp;pressure;altitude;pressure_sealevel;temperature;humidity
54850;BME280;47660;51.334;12.396;2023-04-06T00:01:43;100647.44;;;17.76;32.37
54850;BME280;47660;51.334;12.396;2023-04-06T00:04:09;100647.28;;;17.27;32.16
54850;BME280;47660;51.334;12.396;2023-04-06T00:06:35;100645.78;;;17.13;32.41
54850;BME280;47660;51.334;12.396;2023-04-06T00:09:00;100648.41;;;17.03;32.49
54850;BME280;47660;51.334;12.396;2023-04-06T00:11:26;100641.25;;;16.92;32.82
54850;BME280;47660;51.334;12.396;2023-04-06T00:13:52;100638.47;;;17.56;32.03
54850;BME280;47660;51.334;12.396;2023-04-06T00:16:20;100633.97;;;17.26;32.29
54850;BME280;47660;51.334;12.396;2023-04-06T00:18:46;100637.13;;;17.10;32.55
54850;BME280;47660;51.334;12.396;2023-04-06T00:21:13;100639.53;;;17.34;32.56
54850;BME280;47660;51.334;12.396;2023-04-06T00:23:39;100628.25;;;17.50;31.90
54850;BME280;47660;51.334;12.396;2023-04-06T00:26:08;100639.50;;;17.03;32.94
54850;BME280;47660;51.334;12.396;2023-04-06T00:28:34;100639.56;;;16.70;33.12
54850;BME280;47660;51.334;12.396;2023-04-06T00:30:59;100637.84;;;16.90;32.58
54850;BME280;47660;51.334;12.396;2023-04-06T00:33:27;100634.03;;;17.14;32.36
54850;BME280;47660;51.334;12.396;2023-04-06T00:35:55;100631.78;;;16.34;33.41
54850;BME280;47660;51.334;12.396;2023-04-06T00:38:21;100634.69;;;16.43;33.43
54850;BME280;47660;51.334;12.396;2023-04-06T00:40:46;100637.28;;;16.33;33.13
54850;BME280;47660;51.334;12.396;2023-04-06T00:43:12;100625.03;;;16.40;33.51
54850;BME280;47660;51.334;12.396;2023-04-06T00:45:39;100630.63;;;16.70;33.20
54850;BME280;47660;51.334;12.396;2023-04-06T00:48:06;100625.91;;;16.41;33.76
54850;BME280;47660;51.334;12.396;2023-04-06T00:50:34;100629.66;;;16.17;33.94
54850;BME280;47660;51.334;12.396;2023-04-06T00:53:02;100626.94;;;16.28;33.67
54850;BME280;47660;51.334;12.396;2023-04-06T00:55:28;100619.75;;;16.29;33.75
54850;BME280;47660;51.334;12.396;2023-04-06T00:57:54;100626.09;;;16.28;33.79
54850;BME280;47660;51.334;12.396;2023-04-06T01:00:20;100618.44;;;16.44;33.51
54850;BME280;47660;51.334;12.396;2023-04-06T01:02:46;100623.44;;;16.16;33.98
54850;BME280;47660;51.334;12.396;2023-04-06T01:05:13;100623.72;;;16.02;34.19
54850;BME280;47660;51.334;12.396;2023-04-06T01:07:38;100613.97;;;16.01;34.37
54850;BME280;47660;51.334;12.396;2023-04-06T01:10:04;100615.84;;;16.54;33.75
54850;BME280;47660;51.334;12.396;2023-04-06T01:12:34;100613.41;;;17.15;33.10
54850;BME280;47660;51.334;12.396;2023-04-06T01:15:01;100609.59;;;17.17;32.56
54850;BME280;47660;51.334;12.396;2023-04-06T01:17:28;100612.06;;;16.24;33.97
54850;BME280;47660;51.334;12.396;2023-04-06T01:19:54;100610.78;;;16.40;34.02
54850;BME280;47660;51.334;12.396;2023-04-06T01:22:20;100611.72;;;16.29;34.35
54850;BME280;47660;51.334;12.396;2023-04-06T01:24:45;100605.28;;;16.41;34.09
54850;BME280;47660;51.334;12.396;2023-04-06T01:27:12;100609.78;;;16.19;34.13
54850;BME280;47660;51.334;12.396;2023-04-06T01:29:37;100606.56;;;16.37;34.08
54850;BME280;47660;51.334;12.396;2023-04-06T01:32:08;100601.72;;;16.52;34.53
54850;BME280;47660;51.334;12.396;2023-04-06T01:34:34;100602.50;;;16.85;32.77
54850;BME280;47660;51.334;12.396;2023-04-06T01:37:00;100606.47;;;16.48;33.11
54850;BME280;47660;51.334;12.396;2023-04-06T01:39:27;100611.09;;;16.25;33.89
54850;BME280;47660;51.334;12.396;2023-04-06T01:41:53;100608.31;;;16.48;33.57
54850;BME280;47660;51.334;12.396;2023-04-06T01:44:19;100597.00;;;17.08;33.33
54850;BME280;47660;51.334;12.396;2023-04-06T01:46:44;100591.97;;;16.72;33.68
54850;BME280;47660;51.334;12.396;2023-04-06T01:49:11;100596.81;;;16.57;34.25
54850;BME280;47660;51.334;12.396;2023-04-06T01:51:36;100594.69;;;17.03;33.21
54850;BME280;47660;51.334;12.396;2023-04-06T01:54:02;100590.38;;;16.48;34.34
54850;BME280;47660;51.334;12.396;2023-04-06T01:56:27;100592.13;;;16.38;34.33
54850;BME280;47660;51.334;12.396;2023-04-06T01:58:53;100593.97;;;16.38;34.08
54850;BME280;47660;51.334;12.396;2023-04-06T02:01:18;100585.00;;;16.48;34.07
54850;BME280;47660;51.334;12.396;2023-04-06T02:03:46;100588.88;;;16.34;34.50
54850;BME280;47660;51.334;12.396;2023-04-06T02:06:12;100587.97;;;16.45;34.36
54850;BME280;47660;51.334;12.396;2023-04-06T02:08:40;100584.50;;;16.97;33.22
54850;BME280;47660;51.334;12.396;2023-04-06T02:11:06;100584.44;;;16.45;34.49
54850;BME280;47660;51.334;12.396;2023-04-06T02:13:31;100592.03;;;16.40;34.18
54850;BME280;47660;51.334;12.396;2023-04-06T02:15:56;100585.53;;;16.42;34.35
54850;BME280;47660;51.334;12.396;2023-04-06T02:18:22;100580.72;;;16.57;34.28
54850;BME280;47660;51.334;12.396;2023-04-06T02:20:48;100582.66;;;16.34;34.51
54850;BME280;47660;51.334;12.396;2023-04-06T02:23:13;100580.09;;;16.32;34.68
54850;BME280;47660;51.334;12.396;2023-04-06T02:25:38;100579.19;;;16.43;34.63
54850;BME280;47660;51.334;12.396;2023-04-06T02:28:04;100588.75;;;16.57;34.07
54850;BME280;47660;51.334;12.396;2023-04-06T02:30:30;100577.31;;;16.34;34.33
54850;BME280;47660;51.334;12.396;2023-04-06T02:32:58;100569.69;;;16.39;34.67
54850;BME280;47660;51.334;12.396;2023-04-06T02:35:25;100571.78;;;16.36;35.48
54850;BME280;47660;51.334;12.396;2023-04-06T02:37:50;100570.75;;;15.94;35.25
54850;BME280;47660;51.334;12.396;2023-04-06T02:40:16;100580.16;;;16.21;34.66
54850;BME280;47660;51.334;12.396;2023-04-06T02:42:41;100576.13;;;15.94;35.54
54850;BME280;47660;51.334;12.396;2023-04-06T02:45:07;100575.63;;;16.00;35.50
54850;BME280;47660;51.334;12.396;2023-04-06T02:47:33;100577.16;;;16.36;34.97
54850;BME280;47660;51.334;12.396;2023-04-06T02:49:59;100578.88;;;16.04;35.29
54850;BME280;47660;51.334;12.396;2023-04-06T02:52:24;100576.13;;;16.48;34.50
54850;BME280;47660;51.334;12.396;2023-04-06T02:54:50;100584.00;;;15.96;35.46
54850;BME280;47660;51.334;12.396;2023-04-06T02:57:16;100582.25;;;16.17;35.21
54850;BME280;47660;51.334;12.396;2023-04-06T02:59:44;100585.72;;;16.29;35.30
54850;BME280;47660;51.334;12.396;2023-04-06T03:02:12;100587.09;;;16.87;35.01
54850;BME280;47660;51.334;12.396;2023-04-06T03:04:38;100581.09;;;15.99;35.67
54850;BME280;47660;51.334;12.396;2023-04-06T03:07:03;100579.78;;;15.93;35.81
54850;BME280;47660;51.334;12.396;2023-04-06T03:09:28;100586.81;;;16.06;35.66
54850;BME280;47660;51.334;12.396;2023-04-06T03:11:54;100588.16;;;16.00;35.64
54850;BME280;47660;51.334;12.396;2023-04-06T03:14:20;100587.78;;;16.04;35.31
54850;BME280;47660;51.334;12.396;2023-04-06T03:16:48;100583.94;;;16.18;35.43
54850;BME280;47660;51.334;12.396;2023-04-06T03:19:14;100580.78;;;16.13;35.58
54850;BME280;47660;51.334;12.396;2023-04-06T03:21:40;100580.34;;;16.29;35.38
54850;BME280;47660;51.334;12.396;2023-04-06T03:24:07;100584.50;;;16.01;36.02
54850;BME280;47660;51.334;12.396;2023-04-06T03:26:33;100582.84;;;15.88;36.06
54850;BME280;47660;51.334;12.396;2023-04-06T03:28:59;100586.00;;;16.15;35.70
54850;BME280;47660;51.334;12.396;2023-04-06T03:31:26;100587.63;;;16.60;35.89
54850;BME280;47660;51.334;12.396;2023-04-06T03:33:52;100579.50;;;16.08;36.09
54850;BME280;47660;51.334;12.396;2023-04-06T03:36:20;100581.25;;;15.74;36.61
54850;BME280;47660;51.334;12.396;2023-04-06T03:38:48;100575.84;;;16.09;35.76
54850;BME280;47660;51.334;12.396;2023-04-06T03:41:16;100581.22;;;15.97;36.10
54850;BME280;47660;51.334;12.396;2023-04-06T03:43:41;100581.59;;;16.25;35.16
54850;BME280;47660;51.334;12.396;2023-04-06T03:46:07;100577.91;;;16.90;34.55
54850;BME280;47660;51.334;12.396;2023-04-06T03:48:32;100575.91;;;16.18;35.50
54850;BME280;47660;51.334;12.396;2023-04-06T03:50:57;100579.75;;;16.04;35.50
54850;BME280;47660;51.334;12.396;2023-04-06T03:53:23;100593.72;;;16.08;35.98
54850;BME280;47660;51.334;12.396;2023-04-06T03:55:48;100583.41;;;16.03;35.91
54850;BME280;47660;51.334;12.396;2023-04-06T03:58:14;100588.06;;;15.79;36.63
54850;BME280;47660;51.334;12.396;2023-04-06T04:00:42;100589.25;;;15.86;36.31
54850;BME280;47660;51.334;12.396;2023-04-06T04:03:13;100588.28;;;16.31;36.30
54850;BME280;47660;51.334;12.396;2023-04-06T04:05:38;100592.81;;;16.19;35.77
54850;BME280;47660;51.334;12.396;2023-04-06T04:08:04;100595.25;;;16.22;35.73
54850;BME280;47660;51.334;12.396;2023-04-06T04:10:29;100598.34;;;15.62;36.88
54850;BME280;47660;51.334;12.396;2023-04-06T04:12:57;100598.94;;;15.66;36.95
54850;BME280;47660;51.334;12.396;2023-04-06T04:15:22;100598.03;;;15.99;36.29
54850;BME280;47660;51.334;12.396;2023-04-06T04:17:48;100595.13;;;15.80;36.32
54850;BME280;47660;51.334;12.396;2023-04-06T04:20:15;100598.63;;;16.03;36.43
54850;BME280;47660;51.334;12.396;2023-04-06T04:22:43;100602.09;;;16.15;35.27
54850;BME280;47660;51.334;12.396;2023-04-06T04:25:09;100604.25;;;16.32;35.75
54850;BME280;47660;51.334;12.396;2023-04-06T04:27:37;100605.75;;;16.68;35.59
54850;BME280;47660;51.334;12.396;2023-04-06T04:30:05;100604.56;;;17.24;34.73
54850;BME280;47660;51.334;12.396;2023-04-06T04:32:31;100607.97;;;16.62;34.77
54850;BME280;47660;51.334;12.396;2023-04-06T04:34:56;100607.56;;;16.25;35.28
54850;BME280;47660;51.334;12.396;2023-04-06T04:37:22;100609.16;;;16.48;35.11
54850;BME280;47660;51.334;12.396;2023-04-06T04:39:47;100603.75;;;16.60;34.91
54850;BME280;47660;51.334;12.396;2023-04-06T04:42:13;100605.94;;;16.33;35.60
54850;BME280;47660;51.334;12.396;2023-04-06T04:44:38;100605.84;;;16.56;35.03
54850;BME280;47660;51.334;12.396;2023-04-06T04:47:04;100608.63;;;16.33;35.56
54850;BME280;47660;51.334;12.396;2023-04-06T04:49:30;100609.56;;;16.86;34.89
54850;BME280;47660;51.334;12.396;2023-04-06T04:51:58;100612.72;;;16.49;35.10
54850;BME280;47660;51.334;12.396;2023-04-06T04:54:23;100607.66;;;16.77;34.04
54850;BME280;47660;51.334;12.396;2023-04-06T04:56:49;100605.03;;;16.66;34.33
54850;BME280;47660;51.334;12.396;2023-04-06T04:59:17;100606.16;;;17.05;33.13
54850;BME280;47660;51.334;12.396;2023-04-06T05:01:42;100601.09;;;17.43;32.38
54850;BME280;47660;51.334;12.396;2023-04-06T05:04:10;100610.81;;;16.61;33.76
54850;BME280;47660;51.334;12.396;2023-04-06T05:06:36;100606.66;;;16.36;33.92
54850;BME280;47660;51.334;12.396;2023-04-06T05:09:01;100612.47;;;16.19;33.65
54850;BME280;47660;51.334;12.396;2023-04-06T05:11:27;100611.56;;;15.98;34.03
54850;BME280;47660;51.334;12.396;2023-04-06T05:13:53;100618.63;;;15.99;34.41
54850;BME280;47660;51.334;12.396;2023-04-06T05:16:18;100611.59;;;16.19;34.00
54850;BME280;47660;51.334;12.396;2023-04-06T05:18:44;100618.75;;;15.97;34.29
54850;BME280;47660;51.334;12.396;2023-04-06T05:21:10;100607.06;;;15.98;34.12
54850;BME280;47660;51.334;12.396;2023-04-06T05:23:36;100609.84;;;15.97;33.60
54850;BME280;47660;51.334;12.396;2023-04-06T05:26:04;100615.78;;;16.12;34.24
54850;BME280;47660;51.334;12.396;2023-04-06T05:28:32;100619.25;;;16.56;33.21
54850;BME280;47660;51.334;12.396;2023-04-06T05:31:01;100619.81;;;16.06;33.68
54850;BME280;47660;51.334;12.396;2023-04-06T05:33:26;100617.53;;;15.79;33.74
54850;BME280;47660;51.334;12.396;2023-04-06T05:35:52;100622.22;;;15.54;33.81
54850;BME280;47660;51.334;12.396;2023-04-06T05:38:18;100619.50;;;15.88;33.83
54850;BME280;47660;51.334;12.396;2023-04-06T05:40:45;100620.63;;;15.63;34.35
54850;BME280;47660;51.334;12.396;2023-04-06T05:43:11;100626.47;;;16.23;33.06
54850;BME280;47660;51.334;12.396;2023-04-06T05:45:36;100621.94;;;16.77;32.53
54850;BME280;47660;51.334;12.396;2023-04-06T05:48:05;100624.94;;;16.09;33.66
54850;BME280;47660;51.334;12.396;2023-04-06T05:50:33;100627.69;;;16.73;32.75
54850;BME280;47660;51.334;12.396;2023-04-06T05:53:02;100629.28;;;15.55;33.95
54850;BME280;47660;51.334;12.396;2023-04-06T05:55:27;100626.34;;;16.25;32.76
54850;BME280;47660;51.334;12.396;2023-04-06T05:57:53;100624.44;;;17.12;31.26
54850;BME280;47660;51.334;12.396;2023-04-06T06:00:18;100623.94;;;16.97;31.30
54850;BME280;47660;51.334;12.396;2023-04-06T06:02:47;100624.75;;;16.22;32.61
54850;BME280;47660;51.334;12.396;2023-04-06T06:05:15;100623.41;;;17.85;30.73
54850;BME280;47660;51.334;12.396;2023-04-06T06:07:43;100626.22;;;17.01;31.71
54850;BME280;47660;51.334;12.396;2023-04-06T06:10:09;100626.94;;;16.28;32.22
54850;BME280;47660;51.334;12.396;2023-04-06T06:12:37;100625.84;;;16.31;31.82
54850;BME280;47660;51.334;12.396;2023-04-06T06:15:03;100629.78;;;16.90;31.55
54850;BME280;47660;51.334;12.396;2023-04-06T06:17:29;100629.06;;;16.88;31.19
54850;BME280;47660;51.334;12.396;2023-04-06T06:19:54;100625.16;;;16.71;31.27
54850;BME280;47660;51.334;12.396;2023-04-06T06:22:22;100629.66;;;16.71;31.44
54850;BME280;47660;51.334;12.396;2023-04-06T06:24:47;100631.16;;;17.68;30.18
54850;BME280;47660;51.334;12.396;2023-04-06T06:27:13;100632.31;;;17.75;30.26
54850;BME280;47660;51.334;12.396;2023-04-06T06:29:41;100629.56;;;17.56;30.70
54850;BME280;47660;51.334;12.396;2023-04-06T06:32:06;100631.59;;;17.32;30.51
54850;BME280;47660;51.334;12.396;2023-04-06T06:34:34;100627.72;;;18.76;29.26
54850;BME280;47660;51.334;12.396;2023-04-06T06:37:02;100632.75;;;17.08;30.35
54850;BME280;47660;51.334;12.396;2023-04-06T06:39:28;100634.28;;;17.83;29.71
54850;BME280;47660;51.334;12.396;2023-04-06T06:41:53;100642.34;;;16.69;31.01
54850;BME280;47660;51.334;12.396;2023-04-06T06:44:20;100645.50;;;16.74;30.34
54850;BME280;47660;51.334;12.396;2023-04-06T06:46:47;100633.19;;;16.92;30.20
54850;BME280;47660;51.334;12.396;2023-04-06T06:49:14;100623.34;;;18.35;28.66
54850;BME280;47660;51.334;12.396;2023-04-06T06:51:40;100631.75;;;17.81;28.48
54850;BME280;47660;51.334;12.396;2023-04-06T06:54:07;100637.28;;;17.08;29.98
54850;BME280;47660;51.334;12.396;2023-04-06T06:56:35;100642.03;;;17.57;28.60
54850;BME280;47660;51.334;12.396;2023-04-06T06:59:03;100640.19;;;17.57;28.77
54850;BME280;47660;51.334;12.396;2023-04-06T07:01:29;100631.13;;;18.97;27.21
54850;BME280;47660;51.334;12.396;2023-04-06T07:03:54;100639.91;;;18.70;27.37
54850;BME280;47660;51.334;12.396;2023-04-06T07:06:20;100635.72;;;19.91;26.44
54850;BME280;47660;51.334;12.396;2023-04-06T07:08:46;100644.59;;;17.68;28.54
54850;BME280;47660;51.334;12.396;2023-04-06T07:11:11;100647.16;;;15.66;30.68
54850;BME280;47660;51.334;12.396;2023-04-06T07:13:39;100650.59;;;16.77;29.88
54850;BME280;47660;51.334;12.396;2023-04-06T07:16:08;100633.66;;;19.74;26.21
54850;BME280;47660;51.334;12.396;2023-04-06T07:18:34;100631.28;;;19.62;26.39
54850;BME280;47660;51.334;12.396;2023-04-06T07:20:59;100639.03;;;18.79;27.10
54850;BME280;47660;51.334;12.396;2023-04-06T07:23:24;100634.44;;;19.19;26.73
54850;BME280;47660;51.334;12.396;2023-04-06T07:25:50;100638.38;;;20.81;25.33
54850;BME280;47660;51.334;12.396;2023-04-06T07:28:17;100644.28;;;20.58;25.45
54850;BME280;47660;51.334;12.396;2023-04-06T07:30:43;100639.63;;;18.34;27.28
54850;BME280;47660;51.334;12.396;2023-04-06T07:33:08;100630.72;;;20.14;25.27
54850;BME280;47660;51.334;12.396;2023-04-06T07:35:36;100650.22;;;17.55;27.68
54850;BME280;47660;51.334;12.396;2023-04-06T07:38:04;100633.78;;;18.88;27.30
54850;BME280;47660;51.334;12.396;2023-04-06T07:40:30;100638.50;;;20.17;25.59
54850;BME280;47660;51.334;12.396;2023-04-06T07:42:57;100633.94;;;20.98;24.72
54850;BME280;47660;51.334;12.396;2023-04-06T07:45:23;100633.88;;;20.45;25.50
54850;BME280;47660;51.334;12.396;2023-04-06T07:47:48;100630.16;;;20.10;25.03
54850;BME280;47660;51.334;12.396;2023-04-06T07:50:15;100640.75;;;18.70;26.69
54850;BME280;47660;51.334;12.396;2023-04-06T07:52:43;100629.94;;;19.48;26.24
54850;BME280;47660;51.334;12.396;2023-04-06T07:55:11;100636.63;;;19.43;26.19
54850;BME280;47660;51.334;12.396;2023-04-06T07:57:37;100629.47;;;20.08;24.71
54850;BME280;47660;51.334;12.396;2023-04-06T08:00:02;100637.47;;;22.03;23.24
54850;BME280;47660;51.334;12.396;2023-04-06T08:02:29;100630.22;;;19.44;25.45
54850;BME280;47660;51.334;12.396;2023-04-06T08:04:55;100623.78;;;19.27;25.96
54850;BME280;47660;51.334;12.396;2023-04-06T08:07:24;100626.22;;;20.59;25.19
54850;BME280;47660;51.334;12.396;2023-04-06T08:09:49;100633.16;;;21.32;24.40
54850;BME280;47660;51.334;12.396;2023-04-06T08:12:15;100624.84;;;22.36;23.60
54850;BME280;47660;51.334;12.396;2023-04-06T08:14:40;100636.31;;;20.57;24.75
54850;BME280;47660;51.334;12.396;2023-04-06T08:17:06;100630.78;;;20.58;24.88
54850;BME280;47660;51.334;12.396;2023-04-06T08:19:31;100626.06;;;20.78;24.77
54850;BME280;47660;51.334;12.396;2023-04-06T08:21:57;100625.97;;;20.70;24.44
54850;BME280;47660;51.334;12.396;2023-04-06T08:24:25;100632.59;;;20.58;23.94
54850;BME280;47660;51.334;12.396;2023-04-06T08:26:51;100625.47;;;22.05;23.49
54850;BME280;47660;51.334;12.396;2023-04-06T08:29:17;100632.22;;;20.53;25.49
54850;BME280;47660;51.334;12.396;2023-04-06T08:31:43;100633.34;;;21.39;24.23
54850;BME280;47660;51.334;12.396;2023-04-06T08:34:10;100629.03;;;20.93;24.43
54850;BME280;47660;51.334;12.396;2023-04-06T08:36:38;100632.19;;;21.50;24.29
54850;BME280;47660;51.334;12.396;2023-04-06T08:39:06;100628.78;;;21.83;24.02
54850;BME280;47660;51.334;12.396;2023-04-06T08:41:31;100637.47;;;19.44;25.89
54850;BME280;47660;51.334;12.396;2023-04-06T08:43:58;100628.22;;;21.01;24.74
54850;BME280;47660;51.334;12.396;2023-04-06T08:46:26;100623.66;;;22.39;23.65
54850;BME280;47660;51.334;12.396;2023-04-06T08:49:00;100619.69;;;21.92;24.94
54850;BME280;47660;51.334;12.396;2023-04-06T08:51:27;100623.06;;;21.86;24.01
54850;BME280;47660;51.334;12.396;2023-04-06T08:53:57;100624.06;;;21.07;25.04
54850;BME280;47660;51.334;12.396;2023-04-06T08:56:27;100624.28;;;22.00;23.53
54850;BME280;47660;51.334;12.396;2023-04-06T08:58:56;100626.09;;;21.40;24.11
54850;BME280;47660;51.334;12.396;2023-04-06T09:01:25;100621.38;;;20.08;25.36
54850;BME280;47660;51.334;12.396;2023-04-06T09:03:58;100621.56;;;23.15;22.50
54850;BME280;47660;51.334;12.396;2023-04-06T09:06:26;100623.06;;;20.27;25.28
54850;BME280;47660;51.334;12.396;2023-04-06T09:08:56;100621.91;;;19.38;25.01
54850;BME280;47660;51.334;12.396;2023-04-06T09:11:23;100621.84;;;21.37;23.96
54850;BME280;47660;51.334;12.396;2023-04-06T09:13:51;100627.53;;;22.36;23.69
54850;BME280;47660;51.334;12.396;2023-04-06T09:16:17;100627.78;;;21.41;23.65
54850;BME280;47660;51.334;12.396;2023-04-06T09:18:50;100607.66;;;23.98;22.19
54850;BME280;47660;51.334;12.396;2023-04-06T09:21:21;100611.03;;;23.21;22.38
54850;BME280;47660;51.334;12.396;2023-04-06T09:23:46;100612.34;;;24.13;20.62
54850;BME280;47660;51.334;12.396;2023-04-06T09:26:16;100613.91;;;20.38;23.89
54850;BME280;47660;51.334;12.396;2023-04-06T09:31:21;100609.25;;;22.14;22.82
54850;BME280;47660;51.334;12.396;2023-04-06T09:33:47;100611.69;;;21.04;22.71
54850;BME280;47660;51.334;12.396;2023-04-06T09:36:15;100602.94;;;21.96;21.86
54850;BME280;47660;51.334;12.396;2023-04-06T09:38:58;100592.56;;;24.04;19.91
54850;BME280;47660;51.334;12.396;2023-04-06T09:41:25;100595.78;;;24.61;20.36
54850;BME280;47660;51.334;12.396;2023-04-06T09:43:52;100601.31;;;22.45;21.72
54850;BME280;47660;51.334;12.396;2023-04-06T09:46:32;100593.22;;;23.98;20.95
54850;BME280;47660;51.334;12.396;2023-04-06T09:48:59;100603.16;;;22.11;20.99
54850;BME280;47660;51.334;12.396;2023-04-06T09:51:26;100601.81;;;22.16;21.49
54850;BME280;47660;51.334;12.396;2023-04-06T09:53:56;100589.97;;;22.25;22.02
54850;BME280;47660;51.334;12.396;2023-04-06T09:56:28;100597.09;;;21.23;22.06
54850;BME280;47660;51.334;12.396;2023-04-06T09:58:57;100583.69;;;22.08;20.43
54850;BME280;47660;51.334;12.396;2023-04-06T10:01:32;100582.50;;;22.77;20.66
54850;BME280;47660;51.334;12.396;2023-04-06T10:04:13;100577.59;;;24.85;19.20
54850;BME280;47660;51.334;12.396;2023-04-06T10:06:46;100582.59;;;25.11;18.75
54850;BME280;47660;51.334;12.396;2023-04-06T10:09:18;100580.94;;;22.91;20.14
54850;BME280;47660;51.334;12.396;2023-04-06T10:11:47;100579.13;;;22.75;20.01
54850;BME280;47660;51.334;12.396;2023-04-06T10:14:18;100581.50;;;23.74;19.77
54850;BME280;47660;51.334;12.396;2023-04-06T10:16:44;100582.63;;;22.92;20.25
54850;BME280;47660;51.334;12.396;2023-04-06T10:19:20;100576.09;;;24.82;18.39
54850;BME280;47660;51.334;12.396;2023-04-06T10:21:50;100578.63;;;25.14;18.86
54850;BME280;47660;51.334;12.396;2023-04-06T10:24:33;100591.69;;;22.59;20.01
54850;BME280;47660;51.334;12.396;2023-04-06T10:27:04;100581.06;;;24.17;19.45
54850;BME280;47660;51.334;12.396;2023-04-06T10:30:02;100563.44;;;24.89;18.88
54850;BME280;47660;51.334;12.396;2023-04-06T10:32:36;100576.94;;;22.29;20.89
54850;BME280;47660;51.334;12.396;2023-04-06T10:35:09;100577.22;;;22.92;20.33
54850;BME280;47660;51.334;12.396;2023-04-06T10:37:52;100578.72;;;21.78;20.92
54850;BME280;47660;51.334;12.396;2023-04-06T10:40:25;100573.41;;;23.66;20.00
54850;BME280;47660;51.334;12.396;2023-04-06T10:43:07;100566.44;;;23.95;19.37
54850;BME280;47660;51.334;12.396;2023-04-06T10:45:33;100572.88;;;22.66;20.00
54850;BME280;47660;51.334;12.396;2023-04-06T10:47:59;100570.66;;;22.20;20.24
54850;BME280;47660;51.334;12.396;2023-04-06T10:50:24;100567.31;;;23.32;19.66
54850;BME280;47660;51.334;12.396;2023-04-06T10:53:00;100568.38;;;25.31;18.05
54850;BME280;47660;51.334;12.396;2023-04-06T10:55:29;100560.06;;;24.72;18.48
54850;BME280;47660;51.334;12.396;2023-04-06T10:57:55;100559.97;;;24.42;18.17
54850;BME280;47660;51.334;12.396;2023-04-06T11:00:24;100551.06;;;24.72;18.45
54850;BME280;47660;51.334;12.396;2023-04-06T11:02:49;100553.03;;;23.38;19.26
54850;BME280;47660;51.334;12.396;2023-04-06T11:05:15;100557.47;;;23.63;19.29
54850;BME280;47660;51.334;12.396;2023-04-06T11:07:41;100560.84;;;22.35;20.14
54850;BME280;47660;51.334;12.396;2023-04-06T11:10:07;100558.31;;;23.95;19.24
54850;BME280;47660;51.334;12.396;2023-04-06T11:12:33;100548.91;;;23.11;19.79
54850;BME280;47660;51.334;12.396;2023-04-06T11:15:03;100558.34;;;22.34;20.16
54850;BME280;47660;51.334;12.396;2023-04-06T11:17:37;100543.69;;;24.04;18.76
54850;BME280;47660;51.334;12.396;2023-04-06T11:20:04;100549.88;;;22.53;20.35
54850;BME280;47660;51.334;12.396;2023-04-06T11:22:31;100546.06;;;23.44;19.68
54850;BME280;47660;51.334;12.396;2023-04-06T11:25:25;100531.00;;;24.35;18.63
54850;BME280;47660;51.334;12.396;2023-04-06T11:27:55;100531.13;;;24.03;18.51
54850;BME280;47660;51.334;12.396;2023-04-06T11:30:21;100526.66;;;23.24;19.28
54850;BME280;47660;51.334;12.396;2023-04-06T11:32:51;100532.25;;;24.09;19.09
54850;BME280;47660;51.334;12.396;2023-04-06T11:35:23;100526.78;;;23.31;19.33
54850;BME280;47660;51.334;12.396;2023-04-06T11:37:52;100522.06;;;25.76;17.86
54850;BME280;47660;51.334;12.396;2023-04-06T11:40:21;100519.09;;;26.43;17.51
54850;BME280;47660;51.334;12.396;2023-04-06T11:42:54;100530.13;;;23.72;18.88
54850;BME280;47660;51.334;12.396;2023-04-06T11:45:20;100527.09;;;23.67;18.93
54850;BME280;47660;51.334;12.396;2023-04-06T11:47:55;100531.91;;;22.69;19.61
54850;BME280;47660;51.334;12.396;2023-04-06T11:50:22;100519.94;;;24.21;18.46
54850;BME280;47660;51.334;12.396;2023-04-06T11:52:58;100520.72;;;23.83;18.59
54850;BME280;47660;51.334;12.396;2023-04-06T11:55:23;100511.63;;;23.05;19.01
54850;BME280;47660;51.334;12.396;2023-04-06T11:57:49;100520.34;;;22.83;19.29
54850;BME280;47660;51.334;12.396;2023-04-06T12:00:17;100527.38;;;22.11;20.20
54850;BME280;47660;51.334;12.396;2023-04-06T12:02:45;100511.19;;;23.64;19.15
54850;BME280;47660;51.334;12.396;2023-04-06T12:05:11;100517.47;;;21.61;19.99
54850;BME280;47660;51.334;12.396;2023-04-06T12:07:36;100512.28;;;21.92;19.69
54850;BME280;47660;51.334;12.396;2023-04-06T12:10:02;100506.06;;;23.69;18.68
54850;BME280;47660;51.334;12.396;2023-04-06T12:12:28;100502.50;;;23.06;19.20
54850;BME280;47660;51.334;12.396;2023-04-06T12:14:55;100498.75;;;23.70;18.90
54850;BME280;47660;51.334;12.396;2023-04-06T12:17:20;100499.72;;;23.77;18.60
54850;BME280;47660;51.334;12.396;2023-04-06T12:19:46;100499.72;;;23.77;18.23
54850;BME280;47660;51.334;12.396;2023-04-06T12:22:17;100491.69;;;25.57;17.78
54850;BME280;47660;51.334;12.396;2023-04-06T12:24:45;100490.78;;;25.35;17.34
54850;BME280;47660;51.334;12.396;2023-04-06T12:27:13;100491.09;;;26.27;17.16
54850;BME280;47660;51.334;12.396;2023-04-06T12:29:42;100490.13;;;25.11;17.96
54850;BME280;47660;51.334;12.396;2023-04-06T12:32:07;100495.19;;;24.16;18.29
54850;BME280;47660;51.334;12.396;2023-04-06T12:34:37;100493.97;;;22.69;19.28
54850;BME280;47660;51.334;12.396;2023-04-06T12:37:07;100492.66;;;23.91;18.47
54850;BME280;47660;51.334;12.396;2023-04-06T12:39:33;100479.66;;;22.92;19.11
54850;BME280;47660;51.334;12.396;2023-04-06T12:41:58;100481.66;;;22.33;19.39
54850;BME280;47660;51.334;12.396;2023-04-06T12:44:26;100481.38;;;23.56;18.89